Time;durP1;ratioP1;P1;durP2;ratioP2;P2;SDS_P1;SDS_P2;PMS_P1;PMS_P2;Temp;Humidity;BMP_temperature;BMP_pressure;BME280_temperature;BME280_humidity;BME280_pressure;Samples;Min_cycle;Max_cycle;Signal;HPM_P1;HPM_P2
2024/04/08 00:00:43;;;;;;;1.23;0.70;;;17.60;85.50;;;;;;5534148;25;20462;-83
2024/04/08 00:03:09;;;;;;;4.03;1.13;;;17.50;86.00;;;;;;5532796;25;20497;-83
2024/04/08 00:05:38;;;;;;;0.90;0.80;;;17.60;85.30;;;;;;5533951;25;20454;-83
2024/04/08 00:08:05;;;;;;;1.27;1.00;;;17.50;85.10;;;;;;5534512;25;20213;-83
2024/04/08 00:10:33;;;;;;;3.83;0.80;;;17.50;84.50;;;;;;5534202;25;20462;-83
2024/04/08 00:13:02;;;;;;;0.80;0.70;;;17.50;84.50;;;;;;5533508;25;20560;-83
2024/04/08 00:15:30;;;;;;;5.60;0.90;;;17.60;84.20;;;;;;5533361;25;20450;-83
2024/04/08 00:17:56;;;;;;;4.33;0.80;;;17.60;84.20;;;;;;5533346;25;20466;-83
2024/04/08 00:20:24;;;;;;;1.40;0.70;;;17.50;83.90;;;;;;5533856;25;20583;-83
2024/04/08 00:22:51;;;;;;;0.80;0.80;;;17.60;83.20;;;;;;5532954;25;20258;-83
2024/04/08 00:25:19;;;;;;;1.87;0.67;;;17.60;83.40;;;;;;5533566;25;20527;-83
2024/04/08 00:27:45;;;;;;;4.63;0.97;;;17.60;84.00;;;;;;5533734;25;20487;-83
2024/04/08 00:30:16;;;;;;;0.73;0.73;;;17.60;82.60;;;;;;5533605;25;20808;-83
2024/04/08 00:32:42;;;;;;;2.50;0.97;;;17.60;82.40;;;;;;5533401;25;20288;-83
2024/04/08 00:35:11;;;;;;;1.30;0.67;;;17.60;84.20;;;;;;5534502;25;20438;-83
2024/04/08 00:37:37;;;;;;;0.83;0.83;;;17.60;83.50;;;;;;5533057;25;20302;-83
2024/04/08 00:40:06;;;;;;;7.10;0.90;;;17.60;84.50;;;;;;5532998;25;20850;-83
2024/04/08 00:42:32;;;;;;;1.37;1.27;;;17.60;84.50;;;;;;5533630;25;20439;-83
2024/04/08 00:45:00;;;;;;;2.20;0.67;;;17.70;85.60;;;;;;5533796;25;21024;-83
2024/04/08 00:47:29;;;;;;;1.47;0.67;;;17.60;84.10;;;;;;5532808;25;20726;-83
2024/04/08 00:49:58;;;;;;;0.80;0.77;;;17.60;85.30;;;;;;5532398;25;20497;-83
2024/04/08 00:52:24;;;;;;;1.13;0.90;;;17.60;83.80;;;;;;5531053;25;20454;-83
2024/04/08 00:54:52;;;;;;;1.27;0.70;;;17.60;82.20;;;;;;5532250;25;20548;-83
2024/04/08 00:57:19;;;;;;;2.53;0.77;;;17.60;82.90;;;;;;5530503;25;20275;-84
2024/04/08 00:59:48;;;;;;;1.83;0.60;;;17.60;84.90;;;;;;5530591;25;20566;-84
2024/04/08 01:02:13;;;;;;;2.10;1.17;;;17.60;85.50;;;;;;5529606;25;20552;-84
2024/04/08 01:04:45;;;;;;;2.87;1.10;;;17.60;87.40;;;;;;5529771;25;20439;-84
2024/04/08 01:07:11;;;;;;;2.97;0.70;;;17.60;90.20;;;;;;5529713;25;20629;-84
2024/04/08 01:09:39;;;;;;;1.43;0.67;;;17.50;91.00;;;;;;5529199;25;20470;-84
2024/04/08 01:12:05;;;;;;;0.97;0.60;;;17.50;91.10;;;;;;5528268;25;20756;-84
2024/04/08 01:14:35;;;;;;;2.33;0.70;;;17.50;89.60;;;;;;5529837;25;20550;-84
2024/04/08 01:17:01;;;;;;;4.33;0.70;;;17.40;86.40;;;;;;5529098;25;20555;-84
2024/04/08 01:19:29;;;;;;;1.07;0.67;;;17.40;85.20;;;;;;5528986;25;20474;-84
2024/04/08 01:21:58;;;;;;;5.20;1.10;;;17.40;83.60;;;;;;5528548;25;20308;-84
2024/04/08 01:24:29;;;;;;;3.07;1.00;;;17.50;83.00;;;;;;5528826;25;20454;-84
2024/04/08 01:26:55;;;;;;;1.87;0.70;;;17.50;83.30;;;;;;5528650;25;20403;-84
2024/04/08 01:29:23;;;;;;;1.83;0.73;;;17.60;87.50;;;;;;5528140;25;20565;-84
2024/04/08 01:31:50;;;;;;;1.60;0.83;;;17.60;89.70;;;;;;5528320;25;20261;-84
2024/04/08 01:34:18;;;;;;;1.00;0.70;;;17.60;89.90;;;;;;5528315;25;21010;-84
2024/04/08 01:36:44;;;;;;;1.30;0.70;;;17.50;89.30;;;;;;5527856;25;21106;-83
2024/04/08 01:39:12;;;;;;;2.93;1.10;;;17.50;88.50;;;;;;5527617;25;20462;-84
2024/04/08 01:41:41;;;;;;;0.77;0.60;;;17.50;89.30;;;;;;5527893;25;20828;-84
2024/04/08 01:44:09;;;;;;;4.43;0.70;;;17.40;90.40;;;;;;5527906;25;20449;-84
2024/04/08 01:46:35;;;;;;;4.20;0.70;;;17.40;90.90;;;;;;5527708;25;20517;-84
2024/04/08 01:49:04;;;;;;;0.83;0.70;;;17.30;90.50;;;;;;5528065;25;21108;-84
2024/04/08 01:51:30;;;;;;;0.70;0.50;;;17.30;90.80;;;;;;5528105;25;20243;-84
2024/04/08 01:53:58;;;;;;;4.60;0.90;;;17.30;89.10;;;;;;5527383;25;20454;-84
2024/04/08 01:56:24;;;;;;;0.83;0.70;;;17.30;87.70;;;;;;5527803;25;20222;-84
2024/04/08 01:58:55;;;;;;;1.47;0.87;;;17.30;86.90;;;;;;5527745;25;20582;-84
2024/04/08 02:01:21;;;;;;;6.53;1.30;;;17.30;87.00;;;;;;5527321;25;20221;-84
2024/04/08 02:03:49;;;;;;;2.03;0.67;;;17.40;89.60;;;;;;5527401;25;20442;-84
2024/04/08 02:06:15;;;;;;;3.13;1.33;;;17.30;88.70;;;;;;5526943;25;20221;-84
2024/04/08 02:08:43;;;;;;;0.97;0.87;;;17.30;88.80;;;;;;5527280;25;21120;-84
2024/04/08 02:11:09;;;;;;;3.23;1.13;;;17.20;90.00;;;;;;5527092;25;20225;-84
2024/04/08 02:13:37;;;;;;;2.10;0.77;;;17.20;91.50;;;;;;5526937;25;20446;-84
2024/04/08 02:16:07;;;;;;;3.70;1.20;;;17.10;91.80;;;;;;5526997;25;20229;-84
2024/04/08 02:18:36;;;;;;;1.53;0.70;;;17.10;92.40;;;;;;5526458;25;20442;-84
2024/04/08 02:21:02;;;;;;;2.30;1.03;;;17.00;92.30;;;;;;5527133;25;20574;-84
2024/04/08 02:23:30;;;;;;;4.20;0.97;;;16.90;91.90;;;;;;5529556;25;20438;-84
2024/04/08 02:26:00;;;;;;;2.30;0.87;;;16.80;92.20;;;;;;5534028;25;20502;-84
2024/04/08 02:28:35;;;;;;;3.70;0.70;;;16.70;92.20;;;;;;5535885;25;20434;-84
2024/04/08 02:31:04;;;;;;;2.33;0.80;;;16.60;92.50;;;;;;5535016;25;20438;-84
2024/04/08 02:33:41;;;;;;;1.37;0.70;;;16.50;92.90;;;;;;5535474;25;21131;-84
2024/04/08 02:36:10;;;;;;;6.10;1.07;;;16.50;92.30;;;;;;5552725;25;20521;-84
2024/04/08 02:38:36;;;;;;;2.00;0.90;;;16.40;92.70;;;;;;5553961;25;20434;-84
2024/04/08 02:41:04;;;;;;;0.70;0.70;;;16.30;93.20;;;;;;5554369;25;20461;-85
2024/04/08 02:43:30;;;;;;;1.70;0.70;;;16.20;93.00;;;;;;5542514;25;20506;-85
2024/04/08 02:45:59;;;;;;;0.80;0.77;;;16.20;93.80;;;;;;5533312;25;20528;-84
2024/04/08 02:48:25;;;;;;;5.30;1.03;;;16.10;93.80;;;;;;5534079;25;20494;-84
2024/04/08 02:50:55;;;;;;;4.37;1.00;;;16.10;93.70;;;;;;5534710;25;20449;-85
2024/04/08 02:53:21;;;;;;;7.43;0.90;;;16.00;93.40;;;;;;5533793;25;20300;-85
2024/04/08 02:55:50;;;;;;;2.93;0.90;;;15.90;93.80;;;;;;5533620;25;20446;-85
2024/04/08 02:58:15;;;;;;;2.30;1.13;;;15.80;94.70;;;;;;5533733;25;20233;-84
2024/04/08 03:00:44;;;;;;;6.03;1.30;;;15.80;95.00;;;;;;5533557;25;20458;-84
2024/04/08 03:03:10;;;;;;;1.10;0.83;;;15.70;94.70;;;;;;5533605;25;20225;-84
2024/04/08 03:05:38;;;;;;;4.00;1.00;;;15.60;94.70;;;;;;5533249;25;20442;-84
2024/04/08 03:08:07;;;;;;;2.80;0.90;;;15.60;94.70;;;;;;5533848;25;20298;-84
2024/04/08 03:10:36;;;;;;;5.60;0.80;;;15.50;95.00;;;;;;5534758;25;20454;-84
2024/04/08 03:13:02;;;;;;;1.50;0.80;;;15.50;95.10;;;;;;5534483;25;20506;-84
2024/04/08 03:15:30;;;;;;;1.80;1.20;;;15.40;95.10;;;;;;5534012;25;20799;-84
2024/04/08 03:17:56;;;;;;;4.13;1.13;;;15.40;95.20;;;;;;5533945;25;21149;-84
2024/04/08 03:20:24;;;;;;;3.97;1.10;;;15.30;95.40;;;;;;5535350;25;20482;-84
2024/04/08 03:22:50;;;;;;;2.17;1.17;;;15.30;95.80;;;;;;5537593;25;20221;-84
2024/04/08 03:25:21;;;;;;;0.97;0.93;;;15.30;95.60;;;;;;5538831;25;20552;-85
2024/04/08 03:27:47;;;;;;;9.40;1.33;;;15.30;95.70;;;;;;5537353;25;20217;-85
2024/04/08 03:30:15;;;;;;;3.03;1.00;;;15.20;95.60;;;;;;5533123;25;20471;-85
2024/04/08 03:32:41;;;;;;;0.60;0.60;;;15.20;95.90;;;;;;5532917;25;20310;-85
2024/04/08 03:35:09;;;;;;;7.77;1.20;;;15.20;95.10;;;;;;5531911;25;20462;-85
2024/04/08 03:37:38;;;;;;;2.20;0.80;;;15.20;95.40;;;;;;5531279;25;20337;-85
2024/04/08 03:40:07;;;;;;;9.43;1.03;;;15.20;95.90;;;;;;5531557;25;20536;-84
2024/04/08 03:42:36;;;;;;;4.90;0.80;;;15.10;95.90;;;;;;5531278;25;20445;-85
2024/04/08 03:45:05;;;;;;;3.10;0.80;;;15.10;95.90;;;;;;5530598;25;20438;-85
2024/04/08 03:47:33;;;;;;;1.10;1.00;;;15.10;96.40;;;;;;5530384;25;20557;-85
2024/04/08 03:49:59;;;;;;;3.40;0.73;;;15.10;96.70;;;;;;5530532;25;20462;-85
2024/04/08 03:52:28;;;;;;;5.20;1.17;;;15.10;96.30;;;;;;5530501;25;20446;-85
2024/04/08 03:54:56;;;;;;;2.40;1.10;;;15.10;96.40;;;;;;5530336;25;20222;-85
2024/04/08 03:57:24;;;;;;;3.73;1.10;;;15.00;96.80;;;;;;5530220;25;20502;-85
2024/04/08 03:59:53;;;;;;;1.40;0.77;;;15.00;95.80;;;;;;5530561;25;20458;-84
2024/04/08 04:02:21;;;;;;;1.33;0.90;;;15.00;96.10;;;;;;5530484;25;20990;-84
2024/04/08 04:04:47;;;;;;;10.13;0.90;;;15.00;96.80;;;;;;5529748;25;20855;-84
2024/04/08 04:07:15;;;;;;;0.83;0.70;;;15.00;96.60;;;;;;5529459;25;20451;-84
2024/04/08 04:09:41;;;;;;;5.23;0.90;;;15.00;97.60;;;;;;5529304;25;20287;-84
2024/04/08 04:12:09;;;;;;;0.97;0.80;;;15.10;97.30;;;;;;5529337;25;20454;-85
2024/04/08 04:14:35;;;;;;;9.93;1.10;;;15.00;97.20;;;;;;5529290;25;20673;-85
2024/04/08 04:17:06;;;;;;;8.77;1.40;;;15.00;97.00;;;;;;5529157;25;20450;-85
2024/04/08 04:19:32;;;;;;;7.30;0.80;;;15.00;97.10;;;;;;5528886;25;20273;-84
2024/04/08 04:22:00;;;;;;;0.80;0.70;;;14.90;96.80;;;;;;5529521;25;20614;-85
2024/04/08 04:24:26;;;;;;;3.00;1.00;;;14.80;96.90;;;;;;5528453;25;20281;-85
2024/04/08 04:26:55;;;;;;;1.00;0.70;;;14.80;97.30;;;;;;5528961;25;20450;-85
2024/04/08 04:29:20;;;;;;;3.70;1.00;;;14.70;97.40;;;;;;5528605;25;20762;-85
2024/04/08 04:31:49;;;;;;;1.70;0.97;;;14.70;97.90;;;;;;5528679;25;20556;-85
2024/04/08 04:34:17;;;;;;;2.83;0.80;;;14.70;98.40;;;;;;5532618;25;20653;-85
2024/04/08 04:36:47;;;;;;;4.40;0.90;;;14.60;97.80;;;;;;5545441;25;20458;-85
2024/04/08 04:39:13;;;;;;;14.00;1.27;;;14.60;98.00;;;;;;5529862;25;20538;-85
2024/04/08 04:41:41;;;;;;;2.93;0.70;;;14.70;97.40;;;;;;5529068;25;20462;-85
2024/04/08 04:44:07;;;;;;;1.00;0.70;;;14.70;97.80;;;;;;5529906;25;20221;-85
2024/04/08 04:46:35;;;;;;;4.80;1.57;;;14.70;98.00;;;;;;5534204;25;20528;-85
2024/04/08 04:49:01;;;;;;;0.90;0.90;;;14.70;98.00;;;;;;5535691;25;20722;-86
2024/04/08 04:51:32;;;;;;;1.83;1.10;;;14.70;98.60;;;;;;5532516;25;20561;-85
2024/04/08 04:53:58;;;;;;;2.70;1.13;;;14.70;98.20;;;;;;5530608;25;20206;-85
2024/04/08 04:56:26;;;;;;;3.80;1.07;;;14.70;98.30;;;;;;5535148;25;21048;-85
2024/04/08 04:58:52;;;;;;;1.63;1.27;;;14.70;98.20;;;;;;5535862;25;20315;-86
2024/04/08 05:01:21;;;;;;;5.40;0.80;;;14.70;97.90;;;;;;5536200;25;20458;-85
2024/04/08 05:03:47;;;;;;;3.70;1.50;;;14.70;97.30;;;;;;5535255;25;20474;-85
2024/04/08 05:06:16;;;;;;;0.80;0.80;;;14.70;97.00;;;;;;5533083;25;20849;-85
2024/04/08 05:08:46;;;;;;;2.30;1.00;;;14.70;96.60;;;;;;5533458;25;20466;-86
2024/04/08 05:11:14;;;;;;;2.30;1.40;;;14.70;95.80;;;;;;5533618;25;20509;-86
2024/04/08 05:13:40;;;;;;;1.37;0.90;;;14.80;96.10;;;;;;5533141;25;20588;-86
2024/04/08 05:16:10;;;;;;;8.80;0.80;;;14.90;96.50;;;;;;5532595;25;20784;-86
2024/04/08 05:18:36;;;;;;;6.97;1.00;;;15.00;96.30;;;;;;5532482;25;20214;-85
2024/04/08 05:21:05;;;;;;;3.40;0.87;;;15.00;96.00;;;;;;5532385;25;20501;-85
2024/04/08 05:23:31;;;;;;;7.90;1.27;;;15.00;95.60;;;;;;5532396;25;20213;-85
2024/04/08 05:26:02;;;;;;;3.50;1.00;;;15.10;96.40;;;;;;5532457;25;20446;-85
2024/04/08 05:28:29;;;;;;;1.70;1.13;;;15.20;94.70;;;;;;5531926;25;20753;-86
2024/04/08 05:30:57;;;;;;;5.10;0.97;;;15.20;94.90;;;;;;5532303;25;20437;-85
2024/04/08 05:33:23;;;;;;;0.80;0.70;;;15.30;95.30;;;;;;5531583;25;20595;-85
2024/04/08 05:35:52;;;;;;;4.83;0.70;;;15.40;95.30;;;;;;5531724;25;20476;-85
2024/04/08 05:38:18;;;;;;;0.97;0.73;;;15.50;94.80;;;;;;5531327;25;20706;-85
2024/04/08 05:40:46;;;;;;;3.57;0.80;;;15.50;95.20;;;;;;5531765;25;20478;-85
2024/04/08 05:43:14;;;;;;;5.30;1.33;;;15.60;95.00;;;;;;5531346;25;20629;-84
2024/04/08 05:45:43;;;;;;;5.93;0.80;;;15.70;94.60;;;;;;5531358;25;20450;-84
2024/04/08 05:48:09;;;;;;;4.97;0.93;;;15.70;94.50;;;;;;5531665;25;20510;-84
2024/04/08 05:50:37;;;;;;;4.50;0.90;;;15.80;94.80;;;;;;5531190;25;20566;-84
2024/04/08 05:53:03;;;;;;;2.20;1.53;;;15.90;95.00;;;;;;5530981;25;20556;-84
2024/04/08 05:55:32;;;;;;;1.67;0.80;;;15.90;93.90;;;;;;5530379;25;20564;-84
2024/04/08 05:57:58;;;;;;;1.60;0.80;;;16.00;93.90;;;;;;5533414;25;20516;-84
2024/04/08 06:00:29;;;;;;;1.93;1.13;;;16.10;94.10;;;;;;5533938;25;20552;-84
2024/04/08 06:02:55;;;;;;;3.80;0.93;;;16.20;94.00;;;;;;5534515;25;20727;-84
2024/04/08 06:05:26;;;;;;;1.93;0.90;;;16.30;94.60;;;;;;5534173;25;20560;-84
2024/04/08 06:07:53;;;;;;;1.43;1.10;;;16.40;93.50;;;;;;5533989;25;20539;-84
2024/04/08 06:10:22;;;;;;;2.00;0.90;;;16.60;93.20;;;;;;5533729;25;20588;-84
2024/04/08 06:12:48;;;;;;;2.50;0.70;;;16.70;93.00;;;;;;5534205;25;20596;-84
2024/04/08 06:15:17;;;;;;;4.30;1.20;;;16.80;92.90;;;;;;5534091;25;20449;-84
2024/04/08 06:17:46;;;;;;;1.20;0.90;;;16.90;93.20;;;;;;5534043;25;20509;-84
2024/04/08 06:20:14;;;;;;;1.53;1.03;;;17.00;93.10;;;;;;5533696;25;20604;-84
2024/04/08 06:22:40;;;;;;;6.73;0.97;;;17.10;92.30;;;;;;5533882;25;20551;-84
2024/04/08 06:25:10;;;;;;;0.70;0.60;;;17.30;92.00;;;;;;5532595;25;20462;-84
2024/04/08 06:27:36;;;;;;;1.40;0.80;;;17.40;91.80;;;;;;5533112;25;20206;-84
2024/04/08 06:30:05;;;;;;;6.20;0.97;;;17.70;91.50;;;;;;5533680;25;20488;-84
2024/04/08 06:32:33;;;;;;;7.23;1.10;;;18.00;90.90;;;;;;5534541;25;20269;-83
2024/04/08 06:35:02;;;;;;;5.80;0.97;;;18.20;90.40;;;;;;5536396;25;20442;-84
2024/04/08 06:37:31;;;;;;;5.33;0.90;;;18.60;90.50;;;;;;5533411;25;20462;-84
2024/04/08 06:39:57;;;;;;;1.10;0.70;;;18.90;90.60;;;;;;5533205;25;20835;-84
2024/04/08 06:42:25;;;;;;;1.43;0.90;;;19.20;90.10;;;;;;5533318;25;20498;-84
2024/04/08 06:44:52;;;;;;;1.43;0.83;;;19.40;90.90;;;;;;5533501;25;20254;-84
2024/04/08 06:47:20;;;;;;;1.00;0.70;;;19.70;92.00;;;;;;5533154;25;20494;-83
2024/04/08 06:49:47;;;;;;;0.80;0.80;;;19.90;91.20;;;;;;5532816;25;20513;-84
2024/04/08 06:52:18;;;;;;;5.53;0.77;;;20.10;91.90;;;;;;5532815;25;20437;-84
2024/04/08 06:54:44;;;;;;;1.87;0.93;;;20.10;92.00;;;;;;5532591;25;20509;-84
2024/04/08 06:57:12;;;;;;;2.10;1.40;;;20.20;91.80;;;;;;5532246;25;20553;-84
2024/04/08 06:59:38;;;;;;;1.70;1.50;;;20.20;92.00;;;;;;5532293;25;20670;-84
2024/04/08 07:02:07;;;;;;;1.20;0.80;;;20.40;91.80;;;;;;5532531;25;20442;-84
2024/04/08 07:04:33;;;;;;;2.43;1.60;;;20.60;91.50;;;;;;5531995;25;20265;-83
2024/04/08 07:07:02;;;;;;;1.20;1.00;;;20.80;91.10;;;;;;5532085;25;20794;-84
2024/04/08 07:09:30;;;;;;;0.70;0.70;;;21.10;91.10;;;;;;5531249;25;20313;-84
2024/04/08 07:12:02;;;;;;;4.03;1.00;;;21.40;90.50;;;;;;5532712;25;20480;-84
2024/04/08 07:14:28;;;;;;;4.03;1.23;;;21.80;90.40;;;;;;5533045;25;20445;-84
2024/04/08 07:16:57;;;;;;;1.93;1.10;;;22.10;90.50;;;;;;5531717;25;20847;-84
2024/04/08 07:19:23;;;;;;;1.83;0.87;;;22.40;86.90;;;;;;5531985;25;20563;-84
2024/04/08 07:21:51;;;;;;;4.55;0.75;;;22.70;88.70;;;;;;5531935;25;20229;-83
2024/04/08 07:24:17;;;;;;;1.70;0.80;;;23.00;82.10;;;;;;5531176;25;20710;-84
2024/04/08 07:26:49;;;;;;;3.53;0.70;;;23.40;82.50;;;;;;5531477;25;20213;-84
2024/04/08 07:29:15;;;;;;;0.70;0.70;;;23.70;80.50;;;;;;5531602;25;20300;-84
2024/04/08 07:31:43;;;;;;;0.88;0.88;;;24.10;83.20;;;;;;5531397;25;20221;-84
2024/04/08 07:34:09;;;;;;;0.90;0.80;;;24.60;82.10;;;;;;5531646;25;20324;-84
2024/04/08 07:36:37;;;;;;;0.88;0.75;;;24.70;75.50;;;;;;5531317;25;20265;-84
2024/04/08 07:39:03;;;;;;;4.10;0.90;;;25.10;76.10;;;;;;5530855;25;20228;-84
2024/04/08 07:41:32;;;;;;;0.90;0.88;;;25.30;76.10;;;;;;5530656;25;20269;-84
2024/04/08 07:44:00;;;;;;;2.60;0.70;;;25.40;74.30;;;;;;5531204;25;20349;-83
2024/04/08 07:46:28;;;;;;;2.67;0.70;;;25.50;70.10;;;;;;5529951;25;20754;-83
2024/04/08 07:48:55;;;;;;;2.28;0.63;;;25.70;70.30;;;;;;5530016;25;20225;-84
2024/04/08 07:51:24;;;;;;;1.67;0.85;;;25.80;69.70;;;;;;5532130;26;20212;-84
2024/04/08 07:53:49;;;;;;;1.30;0.60;;;25.80;67.90;;;;;;5531422;25;20264;-84
2024/04/08 07:56:18;;;;;;;1.92;0.60;;;25.90;67.70;;;;;;5531240;25;20205;-84
2024/04/08 07:58:46;;;;;;;0.60;0.60;;;26.00;70.30;;;;;;5530851;25;20256;-84
2024/04/08 08:01:17;;;;;;;0.85;0.70;;;26.00;66.00;;;;;;5531083;25;20201;-84
2024/04/08 08:03:43;;;;;;;2.15;0.70;;;26.10;65.80;;;;;;5531881;25;20201;-84
2024/04/08 08:06:11;;;;;;;0.70;0.63;;;25.80;64.30;;;;;;5531807;25;20225;-84
2024/04/08 08:08:41;;;;;;;1.60;1.08;;;25.80;68.10;;;;;;5530510;25;20284;-84
2024/04/08 08:11:10;;;;;;;1.77;0.98;;;25.80;65.50;;;;;;5530819;25;20253;-84
2024/04/08 08:13:44;;;;;;;0.60;0.60;;;25.70;65.70;;;;;;5530669;25;20239;-83
2024/04/08 08:16:12;;;;;;;0.80;0.70;;;25.60;67.20;;;;;;5530934;25;20316;-84
2024/04/08 08:18:45;;;;;;;0.90;0.68;;;25.40;63.70;;;;;;5530342;25;20643;-84
2024/04/08 08:21:14;;;;;;;0.90;0.80;;;25.50;65.40;;;;;;5528826;25;20305;-84
2024/04/08 08:23:42;;;;;;;1.45;0.95;;;25.60;64.60;;;;;;5530601;25;20581;-84
2024/04/08 08:26:10;;;;;;;2.40;0.70;;;25.70;64.00;;;;;;5530322;25;20758;-84
2024/04/08 08:28:41;;;;;;;0.80;0.80;;;25.60;62.10;;;;;;5530312;25;20229;-84
2024/04/08 08:31:09;;;;;;;2.67;0.70;;;25.50;62.50;;;;;;5531224;25;20243;-83
2024/04/08 08:33:39;;;;;;;0.80;0.60;;;25.40;62.90;;;;;;5530737;25;20257;-84
2024/04/08 08:36:13;;;;;;;0.73;0.70;;;25.20;63.50;;;;;;5531773;25;20264;-84
2024/04/08 08:38:40;;;;;;;1.17;0.68;;;25.10;64.10;;;;;;5532995;25;20251;-86
2024/04/08 08:41:13;;;;;;;0.80;0.75;;;25.20;64.20;;;;;;5531996;25;20296;-79
2024/04/08 08:43:40;;;;;;;0.70;0.70;;;25.20;63.30;;;;;;5532452;25;20317;-85
2024/04/08 08:46:11;;;;;;;0.55;0.50;;;25.20;61.80;;;;;;5531844;25;20320;-83
2024/04/08 08:48:39;;;;;;;4.45;1.00;;;25.20;62.30;;;;;;5531431;25;20254;-84
2024/04/08 08:51:12;;;;;;;1.77;0.60;;;25.60;65.20;;;;;;5532450;25;20250;-85
2024/04/08 08:53:38;;;;;;;0.85;0.80;;;25.80;65.50;;;;;;5531644;25;20291;-84
2024/04/08 08:56:15;;;;;;;5.80;1.15;;;25.90;60.10;;;;;;5531908;25;20225;-84
2024/04/08 08:58:42;;;;;;;0.85;0.68;;;25.90;60.00;;;;;;5531530;25;20257;-84
2024/04/08 09:01:12;;;;;;;0.82;0.70;;;26.10;59.90;;;;;;5531844;25;20273;-84
2024/04/08 09:03:38;;;;;;;1.35;0.80;;;26.20;60.10;;;;;;5531237;25;20284;-84
2024/04/08 09:06:11;;;;;;;1.30;1.20;;;26.50;58.80;;;;;;5530602;25;20263;-84
2024/04/08 09:08:37;;;;;;;2.03;0.70;;;26.80;58.50;;;;;;5531293;25;20583;-84
2024/04/08 09:11:09;;;;;;;1.67;0.80;;;27.50;59.30;;;;;;5530871;25;20314;-84
2024/04/08 09:13:36;;;;;;;0.70;0.70;;;28.10;58.80;;;;;;5531997;25;20246;-83
2024/04/08 09:16:05;;;;;;;4.45;0.80;;;28.60;57.80;;;;;;5530163;25;20212;-83
2024/04/08 09:18:31;;;;;;;2.30;0.70;;;29.10;57.90;;;;;;5530215;25;20236;-81
2024/04/08 09:21:00;;;;;;;1.73;0.85;;;29.30;55.20;;;;;;5530361;25;20296;-81
2024/04/08 09:23:32;;;;;;;0.60;0.60;;;29.50;55.00;;;;;;5530366;25;20220;-84
2024/04/08 09:26:00;;;;;;;1.20;0.63;;;29.60;54.40;;;;;;5531010;25;20238;-85
2024/04/08 09:28:27;;;;;;;1.30;0.90;;;29.60;51.70;;;;;;5530949;25;20225;-84
2024/04/08 09:30:56;;;;;;;6.07;1.00;;;29.50;51.90;;;;;;5530428;25;20261;-84
2024/04/08 09:33:22;;;;;;;2.25;0.80;;;30.00;53.30;;;;;;5530826;25;20215;-84
2024/04/08 09:35:51;;;;;;;0.90;0.70;;;30.20;52.40;;;;;;5530833;25;20239;-84
2024/04/08 09:38:19;;;;;;;0.95;0.60;;;30.20;50.90;;;;;;5530432;25;20227;-84
2024/04/08 09:40:53;;;;;;;1.55;0.75;;;30.40;52.50;;;;;;5530260;25;20232;-83
2024/04/08 09:43:21;;;;;;;0.95;0.77;;;30.40;48.60;;;;;;5531438;25;20320;-84
2024/04/08 09:45:50;;;;;;;4.63;1.35;;;30.50;50.40;;;;;;5536708;25;20218;-83
2024/04/08 09:48:17;;;;;;;7.68;1.15;;;30.60;50.50;;;;;;5545769;25;20276;-82
2024/04/08 09:50:45;;;;;;;1.60;0.90;;;30.90;50.90;;;;;;5542642;25;20283;-84
2024/04/08 09:53:11;;;;;;;0.95;0.70;;;31.30;47.60;;;;;;5534338;25;20268;-83
2024/04/08 09:55:42;;;;;;;3.47;0.70;;;31.40;47.20;;;;;;5537768;25;20216;-83
2024/04/08 09:58:13;;;;;;;1.77;0.80;;;31.60;48.80;;;;;;5533589;25;20201;-85
2024/04/08 10:00:45;;;;;;;1.15;0.77;;;31.70;47.60;;;;;;5533044;25;20221;-84
2024/04/08 10:03:12;;;;;;;2.17;0.75;;;31.50;46.90;;;;;;5532686;25;20217;-85
2024/04/08 10:05:41;;;;;;;2.20;0.98;;;31.40;46.70;;;;;;5531719;25;20438;-85
2024/04/08 10:08:08;;;;;;;0.93;0.60;;;31.20;47.10;;;;;;5531625;25;20220;-85
2024/04/08 10:10:38;;;;;;;1.85;0.65;;;30.90;46.00;;;;;;5531728;25;20235;-84
2024/04/08 10:13:09;;;;;;;0.70;0.70;;;30.80;46.80;;;;;;5531207;25;20264;-84
2024/04/08 10:15:38;;;;;;;1.45;0.70;;;30.50;45.30;;;;;;5531694;25;20247;-84
2024/04/08 10:18:07;;;;;;;1.73;0.98;;;30.60;45.10;;;;;;5531271;25;20615;-85
2024/04/08 10:20:34;;;;;;;0.60;0.60;;;30.60;45.50;;;;;;5530275;25;20275;-84
2024/04/08 10:23:03;;;;;;;3.65;0.60;;;30.60;45.90;;;;;;5530768;25;20272;-84
2024/04/08 10:25:36;;;;;;;2.95;0.60;;;30.70;47.90;;;;;;5530766;25;20222;-84
2024/04/08 10:28:10;;;;;;;1.27;0.70;;;30.90;48.40;;;;;;5530300;25;20267;-85
2024/04/08 10:30:39;;;;;;;2.53;0.90;;;31.20;46.80;;;;;;5530218;25;20225;-85
2024/04/08 10:33:10;;;;;;;3.40;0.70;;;31.50;48.20;;;;;;5529883;25;20209;-84
2024/04/08 10:35:36;;;;;;;4.40;0.85;;;31.60;45.10;;;;;;5529616;25;20285;-83
2024/04/08 10:38:06;;;;;;;0.77;0.70;;;31.70;45.90;;;;;;5528686;25;20302;-84
2024/04/08 10:40:32;;;;;;;0.60;0.60;;;32.00;46.20;;;;;;5528999;25;20315;-85
2024/04/08 10:43:00;;;;;;;1.60;0.60;;;32.40;46.20;;;;;;5529316;25;20406;-85
2024/04/08 10:45:26;;;;;;;1.80;0.65;;;32.60;44.00;;;;;;5532667;25;20718;-84
2024/04/08 10:48:01;;;;;;;2.35;0.88;;;32.80;44.20;;;;;;5533234;25;20209;-84
2024/04/08 10:50:28;;;;;;;3.70;0.93;;;33.00;42.50;;;;;;5532886;25;20286;-84
2024/04/08 10:52:56;;;;;;;7.68;0.80;;;33.10;42.30;;;;;;5532371;26;20258;-85
2024/04/08 10:55:22;;;;;;;0.80;0.80;;;33.20;42.80;;;;;;5532705;25;20213;-85
2024/04/08 10:57:51;;;;;;;2.85;0.85;;;33.40;42.70;;;;;;5532656;25;20211;-83
2024/04/08 11:00:17;;;;;;;3.22;0.80;;;33.20;39.20;;;;;;5532664;25;20266;-84
2024/04/08 11:02:46;;;;;;;1.15;1.05;;;32.80;40.30;;;;;;5532532;25;20318;-84
2024/04/08 11:05:14;;;;;;;3.05;0.70;;;33.00;40.70;;;;;;5532356;25;20214;-85
2024/04/08 11:07:43;;;;;;;1.40;0.80;;;32.80;41.20;;;;;;5532553;25;20552;-84
2024/04/08 11:10:12;;;;;;;1.23;0.65;;;32.60;40.20;;;;;;5532420;25;20240;-84
2024/04/08 11:12:41;;;;;;;6.50;0.80;;;32.00;41.90;;;;;;5537163;25;20220;-85
2024/04/08 11:15:09;;;;;;;2.25;0.77;;;31.70;41.50;;;;;;5534450;25;20267;-84
2024/04/08 11:17:38;;;;;;;1.08;0.63;;;31.10;43.50;;;;;;5532597;25;20790;-84
2024/04/08 11:20:06;;;;;;;2.13;0.70;;;30.60;42.80;;;;;;5532257;25;20319;-84
2024/04/08 11:22:38;;;;;;;1.35;0.60;;;30.20;43.90;;;;;;5532871;25;20300;-84
2024/04/08 11:25:12;;;;;;;3.83;0.80;;;29.90;42.10;;;;;;5541536;25;20239;-84
2024/04/08 11:27:40;;;;;;;5.18;0.90;;;29.80;44.90;;;;;;5543243;25;20211;-84
2024/04/08 11:30:08;;;;;;;1.08;0.70;;;29.70;46.70;;;;;;5544321;25;20301;-85
2024/04/08 11:32:36;;;;;;;2.63;0.70;;;29.80;48.20;;;;;;5535584;25;20206;-85
2024/04/08 11:35:03;;;;;;;1.25;0.63;;;29.80;45.70;;;;;;5534516;25;20313;-85
2024/04/08 11:37:32;;;;;;;0.60;0.60;;;29.60;44.80;;;;;;5533608;25;20223;-84
2024/04/08 11:40:01;;;;;;;4.53;0.80;;;29.70;46.10;;;;;;5533623;25;20313;-84
2024/04/08 11:42:30;;;;;;;1.52;0.70;;;29.60;47.80;;;;;;5537621;25;20253;-84
2024/04/08 11:45:02;;;;;;;1.75;0.60;;;29.60;49.10;;;;;;5533372;25;20274;-85
2024/04/08 11:47:30;;;;;;;1.50;0.90;;;29.20;46.20;;;;;;5532924;25;20745;-85
2024/04/08 11:49:56;;;;;;;5.80;1.20;;;29.20;46.90;;;;;;5539958;25;20245;-85
2024/04/08 11:52:25;;;;;;;2.33;0.90;;;29.00;46.90;;;;;;5535384;25;20808;-85
2024/04/08 11:54:51;;;;;;;1.30;0.93;;;28.90;46.90;;;;;;5533820;25;20700;-85
2024/04/08 11:57:22;;;;;;;7.28;1.02;;;28.90;48.10;;;;;;5534624;25;20216;-85
2024/04/08 11:59:48;;;;;;;5.03;0.80;;;28.90;48.20;;;;;;5535129;25;20306;-85
2024/04/08 12:02:16;;;;;;;1.27;0.80;;;28.80;49.70;;;;;;5534568;25;20206;-85
2024/04/08 12:04:46;;;;;;;1.35;0.70;;;28.80;49.30;;;;;;5534188;25;20767;-85
2024/04/08 12:07:15;;;;;;;5.15;1.00;;;28.60;48.90;;;;;;5534279;25;20213;-85
2024/04/08 12:09:41;;;;;;;1.65;0.63;;;28.60;51.40;;;;;;5533530;25;20256;-84
2024/04/08 12:12:13;;;;;;;2.25;0.70;;;28.50;49.30;;;;;;5533373;25;20253;-84
2024/04/08 12:14:41;;;;;;;0.75;0.65;;;28.30;47.70;;;;;;5532769;25;20839;-84
2024/04/08 12:17:10;;;;;;;2.05;0.85;;;28.10;47.30;;;;;;5532635;25;20213;-84
2024/04/08 12:19:36;;;;;;;1.73;0.80;;;28.00;48.20;;;;;;5532335;25;20305;-84
2024/04/08 12:22:05;;;;;;;1.88;0.70;;;27.90;47.60;;;;;;5532431;25;20604;-84
2024/04/08 12:24:31;;;;;;;2.78;0.82;;;27.80;48.10;;;;;;5531467;25;20260;-84
2024/04/08 12:26:59;;;;;;;3.53;0.98;;;27.90;48.50;;;;;;5531363;25;20549;-85
2024/04/08 12:29:25;;;;;;;5.85;0.95;;;27.90;47.30;;;;;;5531144;25;20660;-84
2024/04/08 12:31:57;;;;;;;4.53;1.00;;;27.80;48.50;;;;;;5531513;25;20214;-85
2024/04/08 12:34:22;;;;;;;3.65;0.85;;;27.80;48.90;;;;;;5531781;25;20230;-85
2024/04/08 12:36:51;;;;;;;3.28;1.67;;;27.90;49.30;;;;;;5531427;25;20335;-84
2024/04/08 12:39:17;;;;;;;6.15;1.20;;;27.80;46.90;;;;;;5530879;25;20254;-84
2024/04/08 12:41:45;;;;;;;5.90;1.05;;;27.90;48.20;;;;;;5531930;25;20211;-85
2024/04/08 12:44:12;;;;;;;8.85;1.40;;;27.90;47.30;;;;;;5531264;25;20230;-84
2024/04/08 12:46:40;;;;;;;4.10;1.00;;;27.90;46.70;;;;;;5530606;25;20224;-84
2024/04/08 12:49:09;;;;;;;6.53;1.08;;;28.00;46.70;;;;;;5530775;25;20276;-85
2024/04/08 12:51:37;;;;;;;3.03;0.95;;;28.10;49.70;;;;;;5531294;25;20265;-85